Startpagina
METAR-TAF:

METAR-TAF

Vliegvelden :

Luchthaven Ankara Esenboga

Ankara Esenboğa, Turkije

breedte: 40-07N, lengte: 032-59E, hoogte: 953 m

Actueel weer

Dit bericht is 25 minuten geleden gemaakt, om 17:20 UTC
Wind 3 kt uit het westen
Temperatuur 2°C
Vochtigheid 75%
Druk 1022 hPa
Zicht 10 km of meer
Verspreide wolken op 3500 ft
Gebroken wolken op 8000 ft

METAR: LTAC 161720Z 26003KT 9999 SCT035 BKN080 02/M02 Q1022 NOSIG RMK RWY21L VRB01KT RWY03L VRB02KT RWY21R 27003KT 160V330

Tijdstip: 20:45 (17:45 UTC)

Verwachting

Dit bericht is 1 uur en het 5 minuten geleden gemaakt, om 16:40 UTC
Verwachting geldig van 16 om 18 UTC tot 17 om 18 UTC
Wind 2 kt uit variabele richting
Zicht 10 km of meer
Verspreide wolken op 3500 ft
Gebroken wolken op 10000 ft

TAF: LTAC 161640Z 1618/1718 VRB02KT 9999 SCT035 BKN100

Waarnemingen en weersverwachtingen van meer dan 4000 vliegvelden (METAR en TAF).

De beschikbare stations zijn de gele en rode punten op de kaart.

Ga met uw muis naar het station om de naam te zien.

Klik dan om waarnemingen en weersverwachtingen te zien.

kaart wijzigen: klik op de groene knoppen met een zwart kruis om in te zoomen, op de groene knop met een streepje om uit te zoomen of op de groene pijlen voor aangrenzende kaarten.


METAR-TAF: